createdAt,value
2023-03-13T00:01:13.701Z,99825.69
2023-03-13T00:03:40.457Z,99818.00
2023-03-13T00:06:07.436Z,99817.84
2023-03-13T00:08:33.909Z,99804.13
2023-03-13T00:11:11.187Z,99814.50
2023-03-13T00:13:38.081Z,99812.03
2023-03-13T00:16:07.178Z,99803.34
2023-03-13T00:18:34.143Z,99798.75
2023-03-13T00:21:00.590Z,99788.56
2023-03-13T00:23:27.854Z,99793.94
2023-03-13T00:26:14.978Z,99792.91
2023-03-13T00:28:42.470Z,99784.28
2023-03-13T00:31:20.180Z,99782.56
2023-03-13T00:33:48.416Z,99771.28
2023-03-13T00:36:17.609Z,99768.69
2023-03-13T00:38:44.509Z,99757.44
2023-03-13T00:41:14.246Z,99759.16
2023-03-13T00:43:42.164Z,99753.13
2023-03-13T00:46:09.241Z,99753.13
2023-03-13T00:48:36.101Z,99752.22
2023-03-13T00:51:03.222Z,99749.59
2023-03-13T00:53:29.821Z,99752.19
2023-03-13T00:55:58.801Z,99747.03
2023-03-13T00:58:26.743Z,99741.88
2023-03-13T01:00:53.818Z,99735.75
2023-03-13T01:03:22.216Z,99742.72
2023-03-13T01:05:59.136Z,99735.84
2023-03-13T01:08:26.033Z,99736.63
2023-03-13T01:11:00.751Z,99723.66
2023-03-13T01:13:28.843Z,99726.31
2023-03-13T01:15:55.603Z,99721.09
2023-03-13T01:18:22.337Z,99715.88
2023-03-13T01:20:48.827Z,99712.44
2023-03-13T01:23:15.798Z,99705.44
2023-03-13T01:25:42.762Z,99701.13
2023-03-13T01:28:09.299Z,99698.56
2023-03-13T01:30:35.817Z,99701.97
2023-03-13T01:33:02.638Z,99700.16
2023-03-13T01:35:29.118Z,99691.63
2023-03-13T01:37:55.676Z,99679.50
2023-03-13T01:40:22.193Z,99675.16
2023-03-13T01:42:50.599Z,99667.34
2023-03-13T01:46:00.321Z,99656.06
2023-03-13T01:48:42.283Z,99651.75
2023-03-13T01:51:16.979Z,99648.28
2023-03-13T01:53:45.440Z,99647.41
2023-03-13T01:56:17.544Z,99629.19
2023-03-13T01:58:44.747Z,99627.47
2023-03-13T02:01:11.931Z,99631.81
2023-03-13T02:03:38.523Z,99619.66
2023-03-13T02:06:06.324Z,99604.06
2023-03-13T02:08:36.626Z,99616.19
2023-03-13T02:11:18.241Z,99604.06
2023-03-13T02:13:44.808Z,99600.59
2023-03-13T02:16:11.642Z,99596.28
2023-03-13T02:18:38.407Z,99581.53
2023-03-13T02:21:15.200Z,99573.72
2023-03-13T02:23:59.253Z,99568.53
2023-03-13T02:26:25.744Z,99558.16
2023-03-13T02:28:52.257Z,99551.25
2023-03-13T02:31:18.845Z,99546.88
2023-03-13T02:33:45.492Z,99538.22
2023-03-13T02:36:13.466Z,99534.75
2023-03-13T02:38:53.857Z,99535.63
2023-03-13T02:41:21.767Z,99522.59
2023-03-13T02:43:48.348Z,99525.16
2023-03-13T02:46:17.510Z,99521.72
2023-03-13T02:48:50.900Z,99524.31
2023-03-13T02:51:23.445Z,99515.63
2023-03-13T02:53:51.273Z,99520.88
2023-03-13T02:56:20.529Z,99506.19
2023-03-13T02:58:50.399Z,99500.97
2023-03-13T03:01:17.236Z,99502.72
2023-03-13T03:03:43.900Z,99485.38
2023-03-13T03:06:10.400Z,99478.44
2023-03-13T03:08:36.973Z,99485.38
2023-03-13T03:11:05.319Z,99489.75
2023-03-13T03:13:31.827Z,99477.53
2023-03-13T03:15:58.276Z,99469.75
2023-03-13T03:18:24.976Z,99462.81
2023-03-13T03:20:51.460Z,99457.69
2023-03-13T03:23:17.915Z,99456.78
2023-03-13T03:25:44.425Z,99451.59
2023-03-13T03:28:10.886Z,99448.06
2023-03-13T03:30:37.365Z,99437.72
2023-03-13T03:33:04.347Z,99427.25
2023-03-13T03:35:30.979Z,99430.81
2023-03-13T03:37:57.475Z,99423.03
2023-03-13T03:40:23.956Z,99419.53
2023-03-13T03:42:50.440Z,99417.81
2023-03-13T03:45:16.949Z,99408.13
2023-03-13T03:47:43.463Z,99402.03
2023-03-13T03:50:11.110Z,99392.66
2023-03-13T03:52:38.347Z,99392.69
2023-03-13T03:55:05.478Z,99376.22
2023-03-13T03:57:31.969Z,99377.97
2023-03-13T03:59:58.427Z,99366.59
2023-03-13T04:02:24.903Z,99358.84
2023-03-13T04:04:51.452Z,99345.72
2023-03-13T04:07:17.869Z,99336.38
2023-03-13T04:09:44.324Z,99325.19
2023-03-13T04:12:10.788Z,99329.56
2023-03-13T04:14:37.335Z,99321.63
2023-03-13T04:17:03.848Z,99316.25
2023-03-13T04:19:30.357Z,99309.44
2023-03-13T04:21:56.805Z,99298.34
2023-03-13T04:24:23.279Z,99289.59
2023-03-13T04:26:49.715Z,99277.56
2023-03-13T04:29:16.191Z,99269.66
2023-03-13T04:31:42.622Z,99264.25
2023-03-13T04:34:09.089Z,99260.84
2023-03-13T04:36:35.528Z,99251.25
2023-03-13T04:39:02.009Z,99254.75
2023-03-13T04:41:28.527Z,99233.25
2023-03-13T04:43:55.047Z,99234.00
2023-03-13T04:46:21.595Z,99235.03
2023-03-13T04:48:48.082Z,99217.66
2023-03-13T04:51:14.536Z,99218.66
2023-03-13T04:53:40.990Z,99206.44
2023-03-13T04:56:07.514Z,99196.03
2023-03-13T04:58:34.017Z,99190.94
2023-03-13T05:01:00.482Z,99185.63
2023-03-13T05:03:27.029Z,99176.03
2023-03-13T05:05:53.478Z,99162.00
2023-03-13T05:08:19.996Z,99162.00
2023-03-13T05:10:46.887Z,99150.75
2023-03-13T05:13:13.366Z,99131.56
2023-03-13T05:15:39.893Z,99125.50
2023-03-13T05:18:06.449Z,99120.53
2023-03-13T05:20:32.897Z,99120.31
2023-03-13T05:22:59.397Z,99106.38
2023-03-13T05:25:25.880Z,99104.72
2023-03-13T05:27:52.354Z,99088.44
2023-03-13T05:30:19.618Z,99087.56
2023-03-13T05:32:46.132Z,99083.28
2023-03-13T05:35:12.633Z,99084.91
2023-03-13T05:37:41.265Z,99082.06
2023-03-13T05:40:09.140Z,99078.03
2023-03-13T05:42:35.730Z,99072.13
2023-03-13T05:45:02.223Z,99077.00
2023-03-13T05:47:28.665Z,99070.22
2023-03-13T05:49:55.197Z,99058.63
2023-03-13T05:52:21.677Z,99051.84
2023-03-13T05:54:48.241Z,99046.50
2023-03-13T05:57:14.817Z,99038.16
2023-03-13T05:59:41.259Z,99027.44
2023-03-13T06:02:07.783Z,99031.63
2023-03-13T06:04:35.608Z,99030.03
2023-03-13T06:07:02.172Z,99004.84
2023-03-13T06:09:28.631Z,99009.22
2023-03-13T06:11:55.360Z,99005.06
2023-03-13T06:14:21.839Z,98988.53
2023-03-13T06:16:48.418Z,98987.94
2023-03-13T06:19:15.252Z,98978.75
2023-03-13T06:21:41.852Z,98977.41
2023-03-13T06:24:08.433Z,98971.06
2023-03-13T06:26:34.869Z,98977.25
2023-03-13T06:29:01.351Z,98978.22
2023-03-13T06:31:27.810Z,98968.22
2023-03-13T06:33:55.221Z,98949.41
2023-03-13T06:36:25.594Z,98953.03
2023-03-13T06:38:52.120Z,98943.56
2023-03-13T06:41:18.603Z,98938.78
2023-03-13T06:43:45.095Z,98933.97
2023-03-13T06:46:20.668Z,98933.66
2023-03-13T06:48:47.188Z,98926.59
2023-03-13T06:51:14.949Z,98930.56
2023-03-13T06:53:41.699Z,98916.59
2023-03-13T06:56:09.231Z,98903.53
2023-03-13T06:58:36.129Z,98903.38
2023-03-13T07:01:10.573Z,98896.22
2023-03-13T07:03:38.248Z,98888.41
2023-03-13T07:06:05.932Z,98886.03
2023-03-13T07:08:33.375Z,98883.78
2023-03-13T07:11:02.548Z,98899.41
2023-03-13T07:13:29.783Z,98884.25
2023-03-13T07:15:57.367Z,98871.50
2023-03-13T07:18:24.317Z,98871.28
2023-03-13T07:20:55.861Z,98860.47
2023-03-13T07:23:23.370Z,98857.75
2023-03-13T07:26:01.083Z,98849.19
2023-03-13T07:28:29.546Z,98844.50
2023-03-13T07:30:56.139Z,98836.81
2023-03-13T07:33:22.665Z,98830.63
2023-03-13T07:35:52.451Z,98834.06
2023-03-13T07:38:19.827Z,98839.00
2023-03-13T07:40:51.448Z,98824.03
2023-03-13T07:43:17.965Z,98822.28
2023-03-13T07:46:01.490Z,98829.59
2023-03-13T07:48:39.258Z,98824.97
2023-03-13T07:51:07.914Z,98821.38
2023-03-13T07:53:34.905Z,98812.59
2023-03-13T07:56:02.762Z,98809.50
2023-03-13T07:58:32.012Z,98798.97
2023-03-13T08:00:59.635Z,98811.66
2023-03-13T08:03:26.505Z,98803.31
2023-03-13T08:06:00.744Z,98792.78
2023-03-13T08:08:27.838Z,98797.66
2023-03-13T08:10:54.373Z,98795.03
2023-03-13T08:13:20.904Z,98800.66
2023-03-13T08:15:47.399Z,98804.50
2023-03-13T08:18:13.852Z,98798.47
2023-03-13T08:20:40.309Z,98796.56
2023-03-13T08:23:06.756Z,98794.34
2023-03-13T08:25:33.470Z,98794.97
2023-03-13T08:28:02.044Z,98791.22
2023-03-13T08:30:29.067Z,98786.50
2023-03-13T08:32:55.579Z,98790.97
2023-03-13T08:35:22.135Z,98776.16
2023-03-13T08:37:48.688Z,98778.69
2023-03-13T08:40:15.328Z,98781.66
2023-03-13T08:42:41.781Z,98768.31
2023-03-13T08:45:08.783Z,98766.75
2023-03-13T08:47:35.361Z,98764.56
2023-03-13T08:50:02.341Z,98760.31
2023-03-13T08:52:28.930Z,98753.50
2023-03-13T08:54:55.494Z,98754.72
2023-03-13T08:57:22.068Z,98755.84
2023-03-13T08:59:49.594Z,98759.47
2023-03-13T09:02:19.973Z,98749.59
2023-03-13T09:04:48.314Z,98747.94
2023-03-13T09:07:15.129Z,98761.63
2023-03-13T09:09:41.631Z,98734.84
2023-03-13T09:12:15.520Z,98737.97
2023-03-13T09:14:48.356Z,98742.88
2023-03-13T09:17:14.851Z,98754.16
2023-03-13T09:19:54.160Z,98739.97
2023-03-13T09:22:25.741Z,98732.41
2023-03-13T09:24:52.203Z,98722.97
2023-03-13T09:27:18.655Z,98729.75
2023-03-13T09:29:45.166Z,98713.25
2023-03-13T09:32:11.609Z,98729.81
2023-03-13T09:34:38.073Z,98730.75
2023-03-13T09:37:04.545Z,98730.19
2023-03-13T09:39:31.044Z,98714.41
2023-03-13T09:42:10.089Z,98725.56
2023-03-13T09:44:50.479Z,98725.41
2023-03-13T09:47:21.709Z,98725.00
2023-03-13T09:49:57.287Z,98737.66
2023-03-13T09:52:30.869Z,98728.50
2023-03-13T09:55:02.903Z,98723.03
2023-03-13T09:57:38.888Z,98734.53
2023-03-13T10:00:12.581Z,98718.41
2023-03-13T10:02:39.729Z,98718.91
2023-03-13T10:05:12.586Z,98740.25
2023-03-13T10:07:39.174Z,98733.25
2023-03-13T10:10:13.999Z,98743.94
2023-03-13T10:12:45.561Z,98747.84
2023-03-13T10:15:33.863Z,98745.06
2023-03-13T10:18:11.621Z,98755.84
2023-03-13T10:20:39.361Z,98744.56
2023-03-13T10:23:34.316Z,98752.13
2023-03-13T10:26:00.842Z,98748.00
2023-03-13T10:28:27.306Z,98746.28
2023-03-13T10:31:03.513Z,98751.25
2023-03-13T10:33:30.696Z,98756.44
2023-03-13T10:36:03.439Z,98770.69
2023-03-13T10:38:34.160Z,98761.78
2023-03-13T10:41:06.691Z,98768.50
2023-03-13T10:43:33.165Z,98763.94
2023-03-13T10:45:59.635Z,98752.91
2023-03-13T10:48:30.280Z,98755.44
2023-03-13T10:51:02.280Z,98749.25
2023-03-13T10:53:28.887Z,98746.88
2023-03-13T10:55:58.403Z,98759.72
2023-03-13T10:58:34.593Z,98763.13
2023-03-13T11:01:17.320Z,98759.03
2023-03-13T11:03:44.738Z,98757.00
2023-03-13T11:06:28.358Z,98766.50
2023-03-13T11:09:10.083Z,98759.19
2023-03-13T11:11:51.828Z,98761.19
2023-03-13T11:14:23.920Z,98757.59
2023-03-13T11:16:56.456Z,98746.81
2023-03-13T11:19:43.631Z,98753.31
2023-03-13T11:22:30.537Z,98725.09
2023-03-13T11:25:06.153Z,98730.72
2023-03-13T11:27:38.778Z,98716.88
2023-03-13T11:30:32.948Z,98722.16
2023-03-13T11:33:02.946Z,98716.97
2023-03-13T11:35:49.343Z,98722.09
2023-03-13T11:38:27.460Z,98722.34
2023-03-13T11:40:56.940Z,98724.72
2023-03-13T11:43:41.084Z,98712.53
2023-03-13T11:46:18.373Z,98716.69
2023-03-13T11:49:15.902Z,98705.31
2023-03-13T11:51:54.890Z,98720.00
2023-03-13T11:54:47.540Z,98714.53
2023-03-13T11:57:35.332Z,98716.69
2023-03-13T12:00:40.805Z,98731.25
2023-03-13T12:03:17.553Z,98717.84
2023-03-13T12:05:52.160Z,98732.09
2023-03-13T12:08:49.234Z,98734.66
2023-03-13T12:11:29.021Z,98724.59
2023-03-13T12:13:59.882Z,98717.72
2023-03-13T12:16:50.559Z,98715.47
2023-03-13T12:19:28.684Z,98719.91
2023-03-13T12:21:57.216Z,98722.28
2023-03-13T12:24:36.762Z,98720.88
2023-03-13T12:27:55.235Z,98718.00
2023-03-13T12:30:36.508Z,98717.69
2023-03-13T12:33:26.533Z,98713.59
2023-03-13T12:35:59.613Z,98718.63
2023-03-13T12:38:40.075Z,98715.34
2023-03-13T12:41:28.424Z,98676.97
2023-03-13T12:44:08.313Z,98698.84
2023-03-13T12:46:43.353Z,98703.69
2023-03-13T12:49:38.102Z,98692.38
2023-03-13T12:52:04.502Z,98691.59
2023-03-13T12:54:44.583Z,98684.47
2023-03-13T12:57:43.423Z,98683.75
2023-03-13T13:00:17.045Z,98670.34
2023-03-13T13:02:43.648Z,98670.03
2023-03-13T13:05:21.328Z,98675.53
2023-03-13T13:07:55.597Z,98659.00
2023-03-13T13:10:26.245Z,98668.03
2023-03-13T13:13:14.680Z,98668.00
2023-03-13T13:16:05.144Z,98657.38
2023-03-13T13:18:32.881Z,98655.03
2023-03-13T13:21:02.436Z,98644.81
2023-03-13T13:23:36.948Z,98639.25
2023-03-13T13:26:33.794Z,98633.22
2023-03-13T13:29:01.633Z,98635.19
2023-03-13T13:31:56.994Z,98631.44
2023-03-13T13:34:34.439Z,98622.22
2023-03-13T13:37:06.077Z,98606.88
2023-03-13T13:40:21.619Z,98608.78
2023-03-13T13:42:59.373Z,98606.00
2023-03-13T13:45:26.027Z,98590.78
2023-03-13T13:48:14.998Z,98582.34
2023-03-13T13:51:14.168Z,98566.00
2023-03-13T13:53:48.480Z,98559.47
2023-03-13T13:56:32.413Z,98566.13
2023-03-13T13:59:20.239Z,98569.63
2023-03-13T14:01:48.493Z,98565.34
2023-03-13T14:04:28.683Z,98554.22
2023-03-13T14:06:57.807Z,98556.56
2023-03-13T14:09:48.234Z,98560.19
2023-03-13T14:12:32.815Z,98552.69
2023-03-13T14:15:20.052Z,98552.53
2023-03-13T14:17:49.089Z,98553.72
2023-03-13T14:20:27.968Z,98555.38
2023-03-13T14:22:56.361Z,98559.81
2023-03-13T14:25:24.307Z,98553.41
2023-03-13T14:27:52.380Z,98542.88
2023-03-13T14:30:20.966Z,98540.59
2023-03-13T14:32:47.817Z,98537.91
2023-03-13T14:35:19.497Z,98561.31
2023-03-13T14:37:48.379Z,98534.88
2023-03-13T14:40:17.817Z,98537.69
2023-03-13T14:42:49.561Z,98542.84
2023-03-13T14:45:22.487Z,98529.94
2023-03-13T14:47:53.376Z,98537.78
2023-03-13T14:50:22.729Z,98537.91
2023-03-13T14:53:13.475Z,98549.97
2023-03-13T14:55:44.330Z,98541.50
2023-03-13T14:58:19.874Z,98539.44
2023-03-13T15:00:48.364Z,98526.75
2023-03-13T15:03:18.968Z,98522.78
2023-03-13T15:06:13.710Z,98527.28
2023-03-13T15:09:11.017Z,98518.28
2023-03-13T15:11:54.942Z,98513.00
2023-03-13T15:14:40.964Z,98514.50
2023-03-13T15:17:16.935Z,98519.50
2023-03-13T15:19:43.606Z,98507.53
2023-03-13T15:22:12.911Z,98523.09
2023-03-13T15:24:39.362Z,98518.34
2023-03-13T15:27:15.156Z,98516.34
2023-03-13T15:29:48.183Z,98524.56
2023-03-13T15:32:32.918Z,98535.28
2023-03-13T15:35:01.714Z,98519.50
2023-03-13T15:37:30.110Z,98522.44
2023-03-13T15:39:57.402Z,98520.34
2023-03-13T15:42:24.831Z,98533.69
2023-03-13T15:44:51.333Z,98542.47
2023-03-13T15:47:43.956Z,98512.00
2023-03-13T15:50:21.653Z,98530.06
2023-03-13T15:52:56.770Z,98502.06
2023-03-13T15:55:33.601Z,98514.63
2023-03-13T15:58:01.118Z,98506.78
2023-03-13T16:00:27.932Z,98497.81
2023-03-13T16:17:00.461Z,98506.63
2023-03-13T16:22:40.219Z,98528.31
2023-03-13T16:25:18.937Z,98502.91
2023-03-13T16:28:08.315Z,98498.09
2023-03-13T16:30:38.104Z,98524.06
2023-03-13T16:33:14.046Z,98514.28
2023-03-13T16:35:56.838Z,98503.41
2023-03-13T16:38:42.198Z,98513.69
2023-03-13T16:41:11.072Z,98504.28
2023-03-13T16:43:37.596Z,98497.44
2023-03-13T16:46:10.175Z,98505.81
2023-03-13T16:48:36.648Z,98501.41
2023-03-13T16:51:03.731Z,98499.09
2023-03-13T16:53:31.172Z,98500.56
2023-03-13T16:55:57.637Z,98504.94
2023-03-13T16:58:24.144Z,98507.13
2023-03-13T17:01:04.304Z,98509.63
2023-03-13T17:03:33.186Z,98503.03
2023-03-13T17:05:59.716Z,98514.00
2023-03-13T17:08:26.151Z,98526.53
2023-03-13T17:10:52.671Z,98503.66
2023-03-13T17:13:20.435Z,98521.88
2023-03-13T17:15:46.899Z,98522.44
2023-03-13T17:18:13.386Z,98528.72
2023-03-13T17:20:39.982Z,98519.91
2023-03-13T17:23:06.472Z,98534.56
2023-03-13T17:25:33.263Z,98542.66
2023-03-13T17:27:59.724Z,98541.03
2023-03-13T17:30:31.207Z,98537.19
2023-03-13T17:32:59.090Z,98533.31
2023-03-13T17:35:25.742Z,98543.25
2023-03-13T17:37:52.214Z,98532.41
2023-03-13T17:40:28.004Z,98550.75
2023-03-13T17:42:56.374Z,98548.41
2023-03-13T17:45:23.026Z,98552.69
2023-03-13T17:47:50.312Z,98547.19
2023-03-13T17:50:26.902Z,98550.56
2023-03-13T17:52:53.927Z,98566.31
2023-03-13T17:55:20.414Z,98563.16
2023-03-13T17:57:48.330Z,98555.59
2023-03-13T18:00:20.789Z,98557.88
2023-03-13T18:02:47.356Z,98552.91
2023-03-13T18:05:13.983Z,98557.50
2023-03-13T18:07:44.080Z,98560.06
2023-03-13T18:10:16.688Z,98563.56
2023-03-13T18:12:43.204Z,98562.38
2023-03-13T18:15:10.132Z,98559.22
2023-03-13T18:17:36.560Z,98552.75
2023-03-13T18:20:04.848Z,98557.22
2023-03-13T18:22:31.318Z,98541.31
2023-03-13T18:24:57.824Z,98556.94
2023-03-13T18:27:24.259Z,98547.00
2023-03-13T18:29:50.745Z,98556.69
2023-03-13T18:32:18.605Z,98547.78
2023-03-13T18:34:45.482Z,98539.53
2023-03-13T18:37:30.424Z,98533.47
2023-03-13T18:39:58.036Z,98522.59
2023-03-13T18:42:24.866Z,98527.28
2023-03-13T18:44:51.898Z,98520.09
2023-03-13T18:47:21.456Z,98518.13
2023-03-13T18:49:49.917Z,98518.13
2023-03-13T18:52:17.264Z,98517.72
2023-03-13T18:54:45.046Z,98519.31
2023-03-13T18:57:17.333Z,98524.59
2023-03-13T18:59:45.069Z,98519.81
2023-03-13T19:02:14.636Z,98516.88
2023-03-13T19:04:41.480Z,98517.19
2023-03-13T19:07:24.240Z,98531.59
2023-03-13T19:09:50.810Z,98516.81
2023-03-13T19:12:17.326Z,98515.97
2023-03-13T19:14:44.049Z,98525.00
2023-03-13T19:17:23.570Z,98530.66
2023-03-13T19:19:50.330Z,98529.72
2023-03-13T19:22:16.857Z,98531.06
2023-03-13T19:24:43.379Z,98530.19
2023-03-13T19:27:13.116Z,98535.19
2023-03-13T19:29:39.953Z,98544.59
2023-03-13T19:32:07.586Z,98543.22
2023-03-13T19:34:34.201Z,98541.69
2023-03-13T19:37:00.718Z,98551.91
2023-03-13T19:39:27.208Z,98558.47
2023-03-13T19:41:54.141Z,98554.41
2023-03-13T19:44:20.994Z,98561.16
2023-03-13T19:46:47.773Z,98558.25
2023-03-13T19:49:17.390Z,98557.03
2023-03-13T19:51:43.957Z,98545.88
2023-03-13T19:54:11.279Z,98547.06
2023-03-13T19:56:39.523Z,98555.53
2023-03-13T19:59:17.606Z,98532.41
2023-03-13T20:01:47.951Z,98540.41
2023-03-13T20:04:15.526Z,98539.44
2023-03-13T20:06:42.954Z,98550.22
2023-03-13T20:09:12.038Z,98529.69
2023-03-13T20:11:39.027Z,98548.59
2023-03-13T20:14:05.963Z,98536.56
2023-03-13T20:16:34.954Z,98537.13
2023-03-13T20:19:02.319Z,98538.84
2023-03-13T20:21:33.958Z,98553.28
2023-03-13T20:24:00.945Z,98533.94
2023-03-13T20:26:29.149Z,98527.78
2023-03-13T20:28:56.055Z,98528.28
2023-03-13T20:31:26.341Z,98514.25
2023-03-13T20:33:52.855Z,98516.78
2023-03-13T20:36:20.757Z,98517.97
2023-03-13T20:38:47.948Z,98501.66
2023-03-13T20:41:16.229Z,98500.66
2023-03-13T20:43:42.848Z,98502.91
2023-03-13T20:46:09.646Z,98497.16
2023-03-13T20:48:39.309Z,98501.22
2023-03-13T20:51:07.296Z,98492.75
2023-03-13T20:53:38.822Z,98484.97
2023-03-13T20:56:07.199Z,98493.72
2023-03-13T20:58:34.828Z,98485.94
2023-03-13T21:01:02.706Z,98483.13
2023-03-13T21:03:29.562Z,98501.69
2023-03-13T21:05:56.054Z,98504.75
2023-03-13T21:08:23.400Z,98512.16
2023-03-13T21:10:50.152Z,98509.84
2023-03-13T21:13:16.589Z,98490.88
2023-03-13T21:15:43.140Z,98471.25
2023-03-13T21:18:09.798Z,98478.47
2023-03-13T21:20:37.677Z,98474.31
2023-03-13T21:23:04.273Z,98476.00
2023-03-13T21:25:30.827Z,98482.75
2023-03-13T21:27:57.295Z,98474.69
2023-03-13T21:30:24.372Z,98464.69
2023-03-13T21:32:50.928Z,98468.56
2023-03-13T21:35:17.483Z,98477.66
2023-03-13T21:37:44.280Z,98475.81
2023-03-13T21:40:11.881Z,98474.69
2023-03-13T21:42:38.431Z,98463.63
2023-03-13T21:45:07.064Z,98463.44
2023-03-13T21:47:36.974Z,98456.88
2023-03-13T21:50:07.064Z,98471.78
2023-03-13T21:52:40.655Z,98471.63
2023-03-13T21:55:09.164Z,98468.72
2023-03-13T21:57:36.917Z,98489.63
2023-03-13T22:00:08.259Z,98482.44
2023-03-13T22:02:36.497Z,98487.22
2023-03-13T22:05:03.876Z,98488.16
2023-03-13T22:07:33.247Z,98491.78
2023-03-13T22:09:59.901Z,98491.50
2023-03-13T22:12:30.141Z,98487.47
2023-03-13T22:14:57.870Z,98497.56
2023-03-13T22:17:25.401Z,98497.31
2023-03-13T22:19:51.867Z,98498.81
2023-03-13T22:22:20.059Z,98500.88
2023-03-13T22:24:46.697Z,98491.50
2023-03-13T22:27:13.590Z,98490.53
2023-03-13T22:29:40.035Z,98487.16
2023-03-13T22:32:06.828Z,98481.81
2023-03-13T22:34:33.274Z,98480.44
2023-03-13T22:36:59.795Z,98466.22
2023-03-13T22:39:26.259Z,98473.81
2023-03-13T22:41:52.733Z,98474.63
2023-03-13T22:44:19.320Z,98475.16
2023-03-13T22:46:45.780Z,98479.84
2023-03-13T22:49:12.252Z,98481.25
2023-03-13T22:51:38.766Z,98474.09
2023-03-13T22:54:05.272Z,98472.13
2023-03-13T22:56:31.736Z,98470.31
2023-03-13T22:58:58.209Z,98471.81
2023-03-13T23:01:24.796Z,98467.72
2023-03-13T23:03:51.260Z,98456.97
2023-03-13T23:06:21.425Z,98441.53
2023-03-13T23:08:48.070Z,98443.94
2023-03-13T23:11:15.147Z,98439.63
2023-03-13T23:13:41.763Z,98446.09
2023-03-13T23:16:10.029Z,98456.66
2023-03-13T23:18:37.226Z,98442.00
2023-03-13T23:21:05.942Z,98454.91
2023-03-13T23:23:33.095Z,98447.28
2023-03-13T23:26:00.558Z,98444.44
2023-03-13T23:28:27.572Z,98436.31
2023-03-13T23:30:54.124Z,98430.88
2023-03-13T23:33:20.619Z,98433.84
2023-03-13T23:35:47.110Z,98429.06
2023-03-13T23:38:13.705Z,98427.78
2023-03-13T23:40:40.168Z,98409.94
2023-03-13T23:43:07.640Z,98413.59
2023-03-13T23:45:36.512Z,98405.75
2023-03-13T23:48:02.992Z,98410.19
2023-03-13T23:50:29.642Z,98413.72
2023-03-13T23:52:56.154Z,98414.56
2023-03-13T23:55:22.598Z,98413.53
2023-03-13T23:57:50.462Z,98418.06
